CheckWX is a tool to help pilots better visualize weather data.  It is not intended as a substitute for an official pre-flight weather briefing.

19:57:47 UTC

OMSJ TAF
Sharjah International Airport
Sharjah, United Arab Emirates
TAF OMSJ 251651Z 2518/2700 12008KT 8000 NSC BECMG 2608/2610 35014KT BECMG 2616/2618 08005KT

Jun-25@
18:00 UTC

Jun-25 @ 18:00 UTC

Jun-26@
08:00 UTC

Jun-26 @ 08:00 UTC

TAF OMSJ 251651Z 2518/2700 12008KT 8000 NSC
Wind
  • 120° at 8 KTS
Cloud Levels
  • No significant clouds

Jun-26@
08:00 UTC

Jun-26 @ 08:00 UTC

Jun-26@
16:00 UTC

Jun-26 @ 16:00 UTC

BECMG 2608/2610 35014KT

Becoming

Becoming Conditions expected by Wed, Jun 26, 2019 @ 10:00 UTC

Wind
  • 350° at 14 KTS
Cloud Levels
  • No significant clouds

Jun-26@
16:00 UTC

Jun-26 @ 16:00 UTC

Jun-27@
00:00 UTC

Jun-27 @ 00:00 UTC

BECMG 2616/2618 08005KT

Becoming

Becoming Conditions expected by Wed, Jun 26, 2019 @ 18:00 UTC

Wind
  • 080° at 5 KTS
Cloud Levels
  • No significant clouds